sensor_id;sensor_type;location;lat;lon;timestamp;temperature;humidity
25208;DHT22;13153;52.316;21.166;2023-06-14T00:02:15;13.50;99.90
25208;DHT22;13153;52.316;21.166;2023-06-14T00:04:41;13.50;99.90
25208;DHT22;13153;52.316;21.166;2023-06-14T00:07:07;13.50;99.90
25208;DHT22;13153;52.316;21.166;2023-06-14T00:09:39;13.50;99.90
25208;DHT22;13153;52.316;21.166;2023-06-14T00:12:05;13.40;99.90
25208;DHT22;13153;52.316;21.166;2023-06-14T00:14:31;13.40;99.90
25208;DHT22;13153;52.316;21.166;2023-06-14T00:16:57;13.50;99.90
25208;DHT22;13153;52.316;21.166;2023-06-14T00:19:24;13.50;99.90
25208;DHT22;13153;52.316;21.166;2023-06-14T00:21:51;13.50;99.90
25208;DHT22;13153;52.316;21.166;2023-06-14T00:24:18;13.50;99.90
25208;DHT22;13153;52.316;21.166;2023-06-14T00:26:44;13.50;99.90
25208;DHT22;13153;52.316;21.166;2023-06-14T00:29:10;13.50;99.90
25208;DHT22;13153;52.316;21.166;2023-06-14T00:31:36;13.50;99.90
25208;DHT22;13153;52.316;21.166;2023-06-14T00:34:02;13.50;99.90
25208;DHT22;13153;52.316;21.166;2023-06-14T00:36:27;13.40;99.90
25208;DHT22;13153;52.316;21.166;2023-06-14T00:38:53;13.40;99.90
25208;DHT22;13153;52.316;21.166;2023-06-14T00:41:19;13.40;99.90
25208;DHT22;13153;52.316;21.166;2023-06-14T00:43:45;13.50;99.90
25208;DHT22;13153;52.316;21.166;2023-06-14T00:46:10;13.40;99.90
25208;DHT22;13153;52.316;21.166;2023-06-14T00:48:37;13.40;99.90
25208;DHT22;13153;52.316;21.166;2023-06-14T00:51:05;13.40;99.90
25208;DHT22;13153;52.316;21.166;2023-06-14T00:53:32;13.40;99.90
25208;DHT22;13153;52.316;21.166;2023-06-14T00:56:01;13.30;99.90
25208;DHT22;13153;52.316;21.166;2023-06-14T00:58:27;13.30;99.90
25208;DHT22;13153;52.316;21.166;2023-06-14T01:00:54;13.30;99.90
25208;DHT22;13153;52.316;21.166;2023-06-14T01:03:20;13.30;99.90
25208;DHT22;13153;52.316;21.166;2023-06-14T01:05:50;13.30;99.90
25208;DHT22;13153;52.316;21.166;2023-06-14T01:08:47;13.30;99.90
25208;DHT22;13153;52.316;21.166;2023-06-14T01:11:26;13.30;99.90
25208;DHT22;13153;52.316;21.166;2023-06-14T01:14:00;13.30;99.90
25208;DHT22;13153;52.316;21.166;2023-06-14T01:16:29;13.30;99.90
25208;DHT22;13153;52.316;21.166;2023-06-14T01:18:57;13.30;99.90
25208;DHT22;13153;52.316;21.166;2023-06-14T01:21:24;13.20;99.90
25208;DHT22;13153;52.316;21.166;2023-06-14T01:23:52;13.20;99.90
25208;DHT22;13153;52.316;21.166;2023-06-14T01:26:22;13.30;99.90
25208;DHT22;13153;52.316;21.166;2023-06-14T01:28:49;13.20;99.90
25208;DHT22;13153;52.316;21.166;2023-06-14T01:31:21;13.30;99.90
25208;DHT22;13153;52.316;21.166;2023-06-14T01:33:49;13.30;99.90
25208;DHT22;13153;52.316;21.166;2023-06-14T01:36:18;13.30;99.90
25208;DHT22;13153;52.316;21.166;2023-06-14T01:38:46;13.30;99.90
25208;DHT22;13153;52.316;21.166;2023-06-14T01:41:16;13.40;99.90
25208;DHT22;13153;52.316;21.166;2023-06-14T01:43:44;13.40;99.90
25208;DHT22;13153;52.316;21.166;2023-06-14T01:46:13;13.40;99.90
25208;DHT22;13153;52.316;21.166;2023-06-14T01:48:41;13.40;99.90
25208;DHT22;13153;52.316;21.166;2023-06-14T01:51:07;13.40;99.90
25208;DHT22;13153;52.316;21.166;2023-06-14T01:53:33;13.40;99.90
25208;DHT22;13153;52.316;21.166;2023-06-14T01:55:58;13.40;99.90
25208;DHT22;13153;52.316;21.166;2023-06-14T01:58:25;13.40;99.90
25208;DHT22;13153;52.316;21.166;2023-06-14T02:00:51;13.30;99.90
25208;DHT22;13153;52.316;21.166;2023-06-14T02:03:20;13.40;99.90
25208;DHT22;13153;52.316;21.166;2023-06-14T02:05:46;13.30;99.90
25208;DHT22;13153;52.316;21.166;2023-06-14T02:08:12;13.40;99.90
25208;DHT22;13153;52.316;21.166;2023-06-14T02:10:38;13.40;99.90
25208;DHT22;13153;52.316;21.166;2023-06-14T02:13:04;13.40;99.90
25208;DHT22;13153;52.316;21.166;2023-06-14T02:15:29;13.40;99.90
25208;DHT22;13153;52.316;21.166;2023-06-14T02:18:00;13.50;99.90
25208;DHT22;13153;52.316;21.166;2023-06-14T02:20:29;13.50;99.90
25208;DHT22;13153;52.316;21.166;2023-06-14T02:22:56;13.50;99.90
25208;DHT22;13153;52.316;21.166;2023-06-14T02:25:22;13.50;99.90
25208;DHT22;13153;52.316;21.166;2023-06-14T02:27:48;13.50;99.90
25208;DHT22;13153;52.316;21.166;2023-06-14T02:30:14;13.50;99.90
25208;DHT22;13153;52.316;21.166;2023-06-14T02:32:41;13.50;99.90
25208;DHT22;13153;52.316;21.166;2023-06-14T02:35:08;13.50;99.90
25208;DHT22;13153;52.316;21.166;2023-06-14T02:37:34;13.50;99.90
25208;DHT22;13153;52.316;21.166;2023-06-14T02:40:00;13.50;99.90
25208;DHT22;13153;52.316;21.166;2023-06-14T02:42:26;13.60;99.90
25208;DHT22;13153;52.316;21.166;2023-06-14T02:44:52;13.60;99.90
25208;DHT22;13153;52.316;21.166;2023-06-14T02:47:18;13.60;99.90
25208;DHT22;13153;52.316;21.166;2023-06-14T02:49:44;13.60;99.90
25208;DHT22;13153;52.316;21.166;2023-06-14T02:52:14;13.60;99.90
25208;DHT22;13153;52.316;21.166;2023-06-14T02:54:40;13.60;99.90
25208;DHT22;13153;52.316;21.166;2023-06-14T02:57:07;13.60;99.90
25208;DHT22;13153;52.316;21.166;2023-06-14T02:59:34;13.60;99.90
25208;DHT22;13153;52.316;21.166;2023-06-14T03:02:00;13.60;99.90
25208;DHT22;13153;52.316;21.166;2023-06-14T03:04:26;13.60;99.90
25208;DHT22;13153;52.316;21.166;2023-06-14T03:06:52;13.60;99.90
25208;DHT22;13153;52.316;21.166;2023-06-14T03:09:19;13.60;99.90
25208;DHT22;13153;52.316;21.166;2023-06-14T03:11:45;13.60;99.90
25208;DHT22;13153;52.316;21.166;2023-06-14T03:14:11;13.60;99.90
25208;DHT22;13153;52.316;21.166;2023-06-14T03:16:38;13.60;99.90
25208;DHT22;13153;52.316;21.166;2023-06-14T03:19:04;13.60;99.90
25208;DHT22;13153;52.316;21.166;2023-06-14T03:21:30;13.60;99.90
25208;DHT22;13153;52.316;21.166;2023-06-14T03:23:56;13.60;99.90
25208;DHT22;13153;52.316;21.166;2023-06-14T03:26:22;13.50;99.90
25208;DHT22;13153;52.316;21.166;2023-06-14T03:28:48;13.50;99.90
25208;DHT22;13153;52.316;21.166;2023-06-14T03:31:16;13.50;99.90
25208;DHT22;13153;52.316;21.166;2023-06-14T03:33:42;13.60;99.90
25208;DHT22;13153;52.316;21.166;2023-06-14T03:36:08;13.60;99.90
25208;DHT22;13153;52.316;21.166;2023-06-14T03:38:34;13.60;99.90
25208;DHT22;13153;52.316;21.166;2023-06-14T03:41:00;13.60;99.90
25208;DHT22;13153;52.316;21.166;2023-06-14T03:43:27;13.60;99.90
25208;DHT22;13153;52.316;21.166;2023-06-14T03:45:53;13.70;99.90
25208;DHT22;13153;52.316;21.166;2023-06-14T03:48:18;13.70;99.90
25208;DHT22;13153;52.316;21.166;2023-06-14T03:50:44;13.70;99.90
25208;DHT22;13153;52.316;21.166;2023-06-14T03:53:10;13.80;99.90
25208;DHT22;13153;52.316;21.166;2023-06-14T03:55:36;13.90;99.90
25208;DHT22;13153;52.316;21.166;2023-06-14T03:58:03;13.90;99.90
25208;DHT22;13153;52.316;21.166;2023-06-14T04:00:29;13.90;99.90
25208;DHT22;13153;52.316;21.166;2023-06-14T04:02:55;14.00;99.90
25208;DHT22;13153;52.316;21.166;2023-06-14T04:05:21;14.20;99.90
25208;DHT22;13153;52.316;21.166;2023-06-14T04:07:47;14.20;99.90
25208;DHT22;13153;52.316;21.166;2023-06-14T04:10:14;14.30;99.90
25208;DHT22;13153;52.316;21.166;2023-06-14T04:12:42;14.30;99.90
25208;DHT22;13153;52.316;21.166;2023-06-14T04:15:08;14.30;99.90
25208;DHT22;13153;52.316;21.166;2023-06-14T04:17:36;14.30;99.90
25208;DHT22;13153;52.316;21.166;2023-06-14T04:20:02;14.20;99.90
25208;DHT22;13153;52.316;21.166;2023-06-14T04:22:31;14.20;99.90
25208;DHT22;13153;52.316;21.166;2023-06-14T04:24:57;14.10;99.90
25208;DHT22;13153;52.316;21.166;2023-06-14T04:27:23;14.10;99.90
25208;DHT22;13153;52.316;21.166;2023-06-14T04:29:52;14.10;99.90
25208;DHT22;13153;52.316;21.166;2023-06-14T04:32:25;14.10;99.90
25208;DHT22;13153;52.316;21.166;2023-06-14T04:34:55;14.20;99.90
25208;DHT22;13153;52.316;21.166;2023-06-14T04:37:22;14.20;99.90
25208;DHT22;13153;52.316;21.166;2023-06-14T04:39:48;14.30;99.90
25208;DHT22;13153;52.316;21.166;2023-06-14T04:42:16;14.30;99.90
25208;DHT22;13153;52.316;21.166;2023-06-14T04:44:45;14.30;99.90
25208;DHT22;13153;52.316;21.166;2023-06-14T04:47:13;14.30;99.90
25208;DHT22;13153;52.316;21.166;2023-06-14T04:49:40;14.30;99.90
25208;DHT22;13153;52.316;21.166;2023-06-14T04:52:07;14.40;99.90
25208;DHT22;13153;52.316;21.166;2023-06-14T04:54:39;14.40;99.90
25208;DHT22;13153;52.316;21.166;2023-06-14T04:57:09;14.40;99.90
25208;DHT22;13153;52.316;21.166;2023-06-14T04:59:40;14.40;99.90
25208;DHT22;13153;52.316;21.166;2023-06-14T05:02:10;14.40;99.90
25208;DHT22;13153;52.316;21.166;2023-06-14T05:04:37;14.50;99.90
25208;DHT22;13153;52.316;21.166;2023-06-14T05:07:09;14.40;99.90
25208;DHT22;13153;52.316;21.166;2023-06-14T05:09:36;14.50;99.90
25208;DHT22;13153;52.316;21.166;2023-06-14T05:12:03;14.60;99.90
25208;DHT22;13153;52.316;21.166;2023-06-14T05:14:29;14.70;99.90
25208;DHT22;13153;52.316;21.166;2023-06-14T05:16:55;14.70;99.90
25208;DHT22;13153;52.316;21.166;2023-06-14T05:19:21;14.70;99.90
25208;DHT22;13153;52.316;21.166;2023-06-14T05:21:47;14.70;99.90
25208;DHT22;13153;52.316;21.166;2023-06-14T05:24:14;14.70;99.90
25208;DHT22;13153;52.316;21.166;2023-06-14T05:26:40;14.70;99.90
25208;DHT22;13153;52.316;21.166;2023-06-14T05:29:06;14.60;99.90
25208;DHT22;13153;52.316;21.166;2023-06-14T05:31:39;14.70;99.90
25208;DHT22;13153;52.316;21.166;2023-06-14T05:34:04;14.70;99.90
25208;DHT22;13153;52.316;21.166;2023-06-14T05:36:30;14.70;99.90
25208;DHT22;13153;52.316;21.166;2023-06-14T05:38:56;14.70;99.90
25208;DHT22;13153;52.316;21.166;2023-06-14T05:41:25;14.80;99.90
25208;DHT22;13153;52.316;21.166;2023-06-14T05:43:54;14.80;99.90
25208;DHT22;13153;52.316;21.166;2023-06-14T05:46:21;14.80;99.90
25208;DHT22;13153;52.316;21.166;2023-06-14T05:48:50;14.70;99.90
25208;DHT22;13153;52.316;21.166;2023-06-14T05:51:18;14.70;99.90
25208;DHT22;13153;52.316;21.166;2023-06-14T05:53:48;14.70;99.90
25208;DHT22;13153;52.316;21.166;2023-06-14T05:56:15;14.70;99.90
25208;DHT22;13153;52.316;21.166;2023-06-14T05:58:43;14.70;99.90
25208;DHT22;13153;52.316;21.166;2023-06-14T06:01:09;14.80;99.90
25208;DHT22;13153;52.316;21.166;2023-06-14T06:03:36;14.90;99.90
25208;DHT22;13153;52.316;21.166;2023-06-14T06:06:01;15.10;99.90
25208;DHT22;13153;52.316;21.166;2023-06-14T06:08:28;15.40;99.90
25208;DHT22;13153;52.316;21.166;2023-06-14T06:10:55;15.80;99.90
25208;DHT22;13153;52.316;21.166;2023-06-14T06:13:22;16.00;99.90
25208;DHT22;13153;52.316;21.166;2023-06-14T06:15:48;16.20;99.90
25208;DHT22;13153;52.316;21.166;2023-06-14T06:18:14;16.10;99.90
25208;DHT22;13153;52.316;21.166;2023-06-14T06:20:39;16.10;99.90
25208;DHT22;13153;52.316;21.166;2023-06-14T06:23:05;15.90;99.90
25208;DHT22;13153;52.316;21.166;2023-06-14T06:25:31;15.80;99.90
25208;DHT22;13153;52.316;21.166;2023-06-14T06:27:57;15.60;99.90
25208;DHT22;13153;52.316;21.166;2023-06-14T06:30:24;15.50;99.90
25208;DHT22;13153;52.316;21.166;2023-06-14T06:32:50;15.50;99.90
25208;DHT22;13153;52.316;21.166;2023-06-14T06:35:16;15.40;99.90
25208;DHT22;13153;52.316;21.166;2023-06-14T06:37:43;15.40;99.90
25208;DHT22;13153;52.316;21.166;2023-06-14T06:40:09;15.40;99.90
25208;DHT22;13153;52.316;21.166;2023-06-14T06:42:36;15.40;99.90
25208;DHT22;13153;52.316;21.166;2023-06-14T06:45:02;15.40;99.90
25208;DHT22;13153;52.316;21.166;2023-06-14T06:47:28;15.30;99.90
25208;DHT22;13153;52.316;21.166;2023-06-14T06:49:53;15.30;99.90
25208;DHT22;13153;52.316;21.166;2023-06-14T06:52:19;15.30;99.90
25208;DHT22;13153;52.316;21.166;2023-06-14T06:54:45;15.40;99.90
25208;DHT22;13153;52.316;21.166;2023-06-14T06:57:11;15.40;99.90
25208;DHT22;13153;52.316;21.166;2023-06-14T06:59:37;15.40;99.90
25208;DHT22;13153;52.316;21.166;2023-06-14T07:02:03;15.50;99.90
25208;DHT22;13153;52.316;21.166;2023-06-14T07:04:30;15.60;99.90
25208;DHT22;13153;52.316;21.166;2023-06-14T07:06:56;15.70;99.90
25208;DHT22;13153;52.316;21.166;2023-06-14T07:09:22;15.80;99.90
25208;DHT22;13153;52.316;21.166;2023-06-14T07:11:50;16.00;99.90
25208;DHT22;13153;52.316;21.166;2023-06-14T07:14:16;16.10;99.90
25208;DHT22;13153;52.316;21.166;2023-06-14T07:16:41;16.30;99.90
25208;DHT22;13153;52.316;21.166;2023-06-14T07:19:08;16.40;99.90
25208;DHT22;13153;52.316;21.166;2023-06-14T07:21:35;16.50;99.90
25208;DHT22;13153;52.316;21.166;2023-06-14T07:24:05;16.60;99.90
25208;DHT22;13153;52.316;21.166;2023-06-14T07:26:34;16.70;99.90
25208;DHT22;13153;52.316;21.166;2023-06-14T07:29:01;16.90;99.90
25208;DHT22;13153;52.316;21.166;2023-06-14T07:31:27;17.10;99.90
25208;DHT22;13153;52.316;21.166;2023-06-14T07:33:53;17.40;99.90
25208;DHT22;13153;52.316;21.166;2023-06-14T07:36:19;17.60;99.90
25208;DHT22;13153;52.316;21.166;2023-06-14T07:38:46;17.90;99.90
25208;DHT22;13153;52.316;21.166;2023-06-14T07:41:11;18.10;99.90
25208;DHT22;13153;52.316;21.166;2023-06-14T07:43:37;18.30;99.90
25208;DHT22;13153;52.316;21.166;2023-06-14T07:46:03;18.50;99.90
25208;DHT22;13153;52.316;21.166;2023-06-14T07:48:29;18.80;99.90
25208;DHT22;13153;52.316;21.166;2023-06-14T07:50:55;19.10;99.90
25208;DHT22;13153;52.316;21.166;2023-06-14T07:53:21;19.50;99.90
25208;DHT22;13153;52.316;21.166;2023-06-14T07:55:47;19.80;99.90
25208;DHT22;13153;52.316;21.166;2023-06-14T07:58:14;20.00;99.90
25208;DHT22;13153;52.316;21.166;2023-06-14T08:00:39;20.10;99.90
25208;DHT22;13153;52.316;21.166;2023-06-14T08:03:05;20.30;99.90
25208;DHT22;13153;52.316;21.166;2023-06-14T08:05:31;20.40;99.90
25208;DHT22;13153;52.316;21.166;2023-06-14T08:07:57;20.30;99.90
25208;DHT22;13153;52.316;21.166;2023-06-14T08:10:23;20.20;99.90
25208;DHT22;13153;52.316;21.166;2023-06-14T08:12:49;20.10;99.90
25208;DHT22;13153;52.316;21.166;2023-06-14T08:15:17;20.10;99.90
25208;DHT22;13153;52.316;21.166;2023-06-14T08:17:44;20.10;99.90
25208;DHT22;13153;52.316;21.166;2023-06-14T08:20:11;20.00;99.90
25208;DHT22;13153;52.316;21.166;2023-06-14T08:22:38;19.80;99.90
25208;DHT22;13153;52.316;21.166;2023-06-14T08:25:08;19.60;99.90
25208;DHT22;13153;52.316;21.166;2023-06-14T08:27:34;19.40;99.90
25208;DHT22;13153;52.316;21.166;2023-06-14T08:30:01;19.20;99.90
25208;DHT22;13153;52.316;21.166;2023-06-14T08:32:28;19.00;99.90
25208;DHT22;13153;52.316;21.166;2023-06-14T08:34:53;18.90;99.90
25208;DHT22;13153;52.316;21.166;2023-06-14T08:37:19;18.80;99.90
25208;DHT22;13153;52.316;21.166;2023-06-14T08:39:46;18.70;99.90
25208;DHT22;13153;52.316;21.166;2023-06-14T08:42:12;18.60;99.90
25208;DHT22;13153;52.316;21.166;2023-06-14T08:44:39;18.50;99.90
25208;DHT22;13153;52.316;21.166;2023-06-14T08:47:07;18.40;99.90
25208;DHT22;13153;52.316;21.166;2023-06-14T08:49:36;18.30;99.90
25208;DHT22;13153;52.316;21.166;2023-06-14T08:52:05;18.30;99.90
25208;DHT22;13153;52.316;21.166;2023-06-14T08:54:36;18.30;99.90
25208;DHT22;13153;52.316;21.166;2023-06-14T08:57:11;18.30;99.90
25208;DHT22;13153;52.316;21.166;2023-06-14T08:59:46;18.30;99.90
25208;DHT22;13153;52.316;21.166;2023-06-14T09:02:17;18.40;99.90
25208;DHT22;13153;52.316;21.166;2023-06-14T09:04:45;18.40;99.90
25208;DHT22;13153;52.316;21.166;2023-06-14T09:07:11;18.20;99.90
25208;DHT22;13153;52.316;21.166;2023-06-14T09:09:41;18.20;99.90
25208;DHT22;13153;52.316;21.166;2023-06-14T09:12:11;18.10;99.90
25208;DHT22;13153;52.316;21.166;2023-06-14T09:14:38;18.00;99.90
25208;DHT22;13153;52.316;21.166;2023-06-14T09:17:06;17.90;99.90
25208;DHT22;13153;52.316;21.166;2023-06-14T09:19:32;17.80;99.90
25208;DHT22;13153;52.316;21.166;2023-06-14T09:21:59;17.80;99.90
25208;DHT22;13153;52.316;21.166;2023-06-14T09:24:25;17.80;99.90
25208;DHT22;13153;52.316;21.166;2023-06-14T09:26:51;17.90;99.90
25208;DHT22;13153;52.316;21.166;2023-06-14T09:29:20;18.00;99.90
25208;DHT22;13153;52.316;21.166;2023-06-14T09:31:47;18.10;99.90
25208;DHT22;13153;52.316;21.166;2023-06-14T09:34:13;18.10;99.90
25208;DHT22;13153;52.316;21.166;2023-06-14T09:36:40;18.10;99.90
25208;DHT22;13153;52.316;21.166;2023-06-14T09:39:08;18.20;99.90
25208;DHT22;13153;52.316;21.166;2023-06-14T09:41:38;18.30;99.90
25208;DHT22;13153;52.316;21.166;2023-06-14T09:44:07;18.30;99.90
25208;DHT22;13153;52.316;21.166;2023-06-14T09:46:34;18.60;99.90
25208;DHT22;13153;52.316;21.166;2023-06-14T09:49:02;18.70;99.90
25208;DHT22;13153;52.316;21.166;2023-06-14T09:51:29;18.70;99.90
25208;DHT22;13153;52.316;21.166;2023-06-14T09:53:59;18.80;99.90
25208;DHT22;13153;52.316;21.166;2023-06-14T09:56:37;18.60;99.90
25208;DHT22;13153;52.316;21.166;2023-06-14T09:59:10;18.50;99.90
25208;DHT22;13153;52.316;21.166;2023-06-14T10:01:42;18.50;99.90
25208;DHT22;13153;52.316;21.166;2023-06-14T10:04:09;18.50;99.90
25208;DHT22;13153;52.316;21.166;2023-06-14T10:06:43;18.50;99.90
25208;DHT22;13153;52.316;21.166;2023-06-14T10:09:14;18.50;99.90
25208;DHT22;13153;52.316;21.166;2023-06-14T10:11:40;18.50;99.90
25208;DHT22;13153;52.316;21.166;2023-06-14T10:14:11;18.50;99.90
25208;DHT22;13153;52.316;21.166;2023-06-14T10:16:49;18.50;99.90
25208;DHT22;13153;52.316;21.166;2023-06-14T10:19:32;18.40;99.90
25208;DHT22;13153;52.316;21.166;2023-06-14T10:24:59;18.10;99.90
25208;DHT22;13153;52.316;21.166;2023-06-14T10:27:26;18.00;99.90
25208;DHT22;13153;52.316;21.166;2023-06-14T10:32:25;18.00;99.90
25208;DHT22;13153;52.316;21.166;2023-06-14T10:34:58;18.10;99.90
25208;DHT22;13153;52.316;21.166;2023-06-14T10:37:31;18.10;99.90
25208;DHT22;13153;52.316;21.166;2023-06-14T10:39:57;18.20;99.90
25208;DHT22;13153;52.316;21.166;2023-06-14T10:42:28;18.30;99.90
25208;DHT22;13153;52.316;21.166;2023-06-14T10:44:57;18.40;99.90
25208;DHT22;13153;52.316;21.166;2023-06-14T10:47:31;18.40;99.90
25208;DHT22;13153;52.316;21.166;2023-06-14T10:50:09;18.40;99.90
25208;DHT22;13153;52.316;21.166;2023-06-14T10:52:41;18.30;99.90
25208;DHT22;13153;52.316;21.166;2023-06-14T10:55:13;18.30;99.90
25208;DHT22;13153;52.316;21.166;2023-06-14T10:57:53;18.30;99.90
25208;DHT22;13153;52.316;21.166;2023-06-14T11:00:27;18.20;99.90
25208;DHT22;13153;52.316;21.166;2023-06-14T11:06:15;18.30;99.90
25208;DHT22;13153;52.316;21.166;2023-06-14T11:11:54;18.30;99.90
25208;DHT22;13153;52.316;21.166;2023-06-14T11:14:22;18.40;99.90
25208;DHT22;13153;52.316;21.166;2023-06-14T11:16:49;18.50;99.90
25208;DHT22;13153;52.316;21.166;2023-06-14T11:19:15;18.60;99.90
25208;DHT22;13153;52.316;21.166;2023-06-14T11:21:43;18.70;99.90
25208;DHT22;13153;52.316;21.166;2023-06-14T11:24:13;18.80;99.90
25208;DHT22;13153;52.316;21.166;2023-06-14T11:26:40;18.80;99.90
25208;DHT22;13153;52.316;21.166;2023-06-14T11:29:06;18.90;99.90
25208;DHT22;13153;52.316;21.166;2023-06-14T11:31:32;19.00;99.90
25208;DHT22;13153;52.316;21.166;2023-06-14T11:33:59;19.10;99.90
25208;DHT22;13153;52.316;21.166;2023-06-14T11:36:30;19.20;99.90
25208;DHT22;13153;52.316;21.166;2023-06-14T11:39:01;19.20;99.90
25208;DHT22;13153;52.316;21.166;2023-06-14T11:41:44;19.00;99.90
25208;DHT22;13153;52.316;21.166;2023-06-14T11:44:11;18.90;99.90
25208;DHT22;13153;52.316;21.166;2023-06-14T11:46:37;18.90;99.90
25208;DHT22;13153;52.316;21.166;2023-06-14T11:49:04;18.90;99.90
25208;DHT22;13153;52.316;21.166;2023-06-14T11:51:33;18.90;99.90
25208;DHT22;13153;52.316;21.166;2023-06-14T11:54:01;18.80;99.90
25208;DHT22;13153;52.316;21.166;2023-06-14T11:56:29;18.70;99.90
25208;DHT22;13153;52.316;21.166;2023-06-14T11:58:57;18.50;99.90
25208;DHT22;13153;52.316;21.166;2023-06-14T12:01:23;18.30;99.90
25208;DHT22;13153;52.316;21.166;2023-06-14T12:03:53;18.30;99.90
25208;DHT22;13153;52.316;21.166;2023-06-14T12:06:30;18.20;99.90
25208;DHT22;13153;52.316;21.166;2023-06-14T12:09:05;18.10;99.90
25208;DHT22;13153;52.316;21.166;2023-06-14T12:11:36;18.10;99.90
25208;DHT22;13153;52.316;21.166;2023-06-14T12:14:05;18.10;99.90
25208;DHT22;13153;52.316;21.166;2023-06-14T12:16:35;18.20;99.90
25208;DHT22;13153;52.316;21.166;2023-06-14T12:19:16;18.30;99.90
25208;DHT22;13153;52.316;21.166;2023-06-14T12:21:43;18.30;99.90
25208;DHT22;13153;52.316;21.166;2023-06-14T12:24:13;18.30;99.90
25208;DHT22;13153;52.316;21.166;2023-06-14T12:26:40;18.40;99.90
25208;DHT22;13153;52.316;21.166;2023-06-14T12:29:07;18.40;99.90
25208;DHT22;13153;52.316;21.166;2023-06-14T12:31:33;18.40;99.90
25208;DHT22;13153;52.316;21.166;2023-06-14T12:33:59;18.30;99.90
25208;DHT22;13153;52.316;21.166;2023-06-14T12:36:26;18.20;99.90
25208;DHT22;13153;52.316;21.166;2023-06-14T12:38:51;18.20;99.90
25208;DHT22;13153;52.316;21.166;2023-06-14T12:41:22;18.10;99.90
25208;DHT22;13153;52.316;21.166;2023-06-14T12:43:48;18.00;99.90
25208;DHT22;13153;52.316;21.166;2023-06-14T12:46:14;18.00;99.90
25208;DHT22;13153;52.316;21.166;2023-06-14T12:48:40;17.90;99.90
25208;DHT22;13153;52.316;21.166;2023-06-14T12:51:05;17.90;99.90
25208;DHT22;13153;52.316;21.166;2023-06-14T12:53:31;18.00;99.90
25208;DHT22;13153;52.316;21.166;2023-06-14T12:55:57;18.00;99.90
25208;DHT22;13153;52.316;21.166;2023-06-14T12:58:23;18.20;99.90
25208;DHT22;13153;52.316;21.166;2023-06-14T13:00:49;18.30;99.90
25208;DHT22;13153;52.316;21.166;2023-06-14T13:03:15;18.30;99.90
25208;DHT22;13153;52.316;21.166;2023-06-14T13:05:41;18.20;99.90
25208;DHT22;13153;52.316;21.166;2023-06-14T13:08:08;18.10;99.90
25208;DHT22;13153;52.316;21.166;2023-06-14T13:10:34;18.20;99.90
25208;DHT22;13153;52.316;21.166;2023-06-14T13:13:00;18.20;99.90
25208;DHT22;13153;52.316;21.166;2023-06-14T13:15:26;18.20;99.90
25208;DHT22;13153;52.316;21.166;2023-06-14T13:17:53;18.30;99.90
25208;DHT22;13153;52.316;21.166;2023-06-14T13:20:18;18.40;99.90
25208;DHT22;13153;52.316;21.166;2023-06-14T13:22:45;18.60;99.90
25208;DHT22;13153;52.316;21.166;2023-06-14T13:25:10;18.70;99.90
25208;DHT22;13153;52.316;21.166;2023-06-14T13:27:36;18.80;99.90
25208;DHT22;13153;52.316;21.166;2023-06-14T13:30:03;18.80;99.90
25208;DHT22;13153;52.316;21.166;2023-06-14T13:32:31;18.90;99.90
25208;DHT22;13153;52.316;21.166;2023-06-14T13:34:57;18.90;99.90
25208;DHT22;13153;52.316;21.166;2023-06-14T13:37:23;18.90;99.90
25208;DHT22;13153;52.316;21.166;2023-06-14T13:39:49;18.90;99.90
25208;DHT22;13153;52.316;21.166;2023-06-14T13:42:15;18.80;99.90
25208;DHT22;13153;52.316;21.166;2023-06-14T13:44:40;18.70;99.90
25208;DHT22;13153;52.316;21.166;2023-06-14T13:47:06;18.80;99.90
25208;DHT22;13153;52.316;21.166;2023-06-14T13:49:32;18.60;99.90
25208;DHT22;13153;52.316;21.166;2023-06-14T13:52:00;18.50;99.90
25208;DHT22;13153;52.316;21.166;2023-06-14T13:54:26;18.40;99.90
25208;DHT22;13153;52.316;21.166;2023-06-14T13:56:53;18.40;99.90
25208;DHT22;13153;52.316;21.166;2023-06-14T13:59:19;18.50;99.90
25208;DHT22;13153;52.316;21.166;2023-06-14T14:01:45;18.70;99.90
25208;DHT22;13153;52.316;21.166;2023-06-14T14:04:11;18.80;99.90
25208;DHT22;13153;52.316;21.166;2023-06-14T14:06:37;18.90;99.90
25208;DHT22;13153;52.316;21.166;2023-06-14T14:09:03;19.00;99.90
25208;DHT22;13153;52.316;21.166;2023-06-14T14:11:28;19.10;99.90
25208;DHT22;13153;52.316;21.166;2023-06-14T14:13:58;19.10;99.90
25208;DHT22;13153;52.316;21.166;2023-06-14T14:16:24;19.00;99.90
25208;DHT22;13153;52.316;21.166;2023-06-14T14:18:51;18.90;99.90
25208;DHT22;13153;52.316;21.166;2023-06-14T14:21:16;18.90;99.90
25208;DHT22;13153;52.316;21.166;2023-06-14T14:23:42;18.90;99.90
25208;DHT22;13153;52.316;21.166;2023-06-14T14:26:09;18.80;99.90
25208;DHT22;13153;52.316;21.166;2023-06-14T14:28:35;18.80;99.90
25208;DHT22;13153;52.316;21.166;2023-06-14T14:31:01;18.80;99.90
25208;DHT22;13153;52.316;21.166;2023-06-14T14:33:27;18.90;99.90
25208;DHT22;13153;52.316;21.166;2023-06-14T14:35:52;19.00;99.90
25208;DHT22;13153;52.316;21.166;2023-06-14T14:38:18;19.10;99.90
25208;DHT22;13153;52.316;21.166;2023-06-14T14:40:44;19.20;99.90
25208;DHT22;13153;52.316;21.166;2023-06-14T14:43:10;19.30;99.90
25208;DHT22;13153;52.316;21.166;2023-06-14T14:45:36;19.30;99.90
25208;DHT22;13153;52.316;21.166;2023-06-14T14:48:02;19.30;99.90
25208;DHT22;13153;52.316;21.166;2023-06-14T14:50:29;19.30;99.90
25208;DHT22;13153;52.316;21.166;2023-06-14T14:52:55;19.30;99.90
25208;DHT22;13153;52.316;21.166;2023-06-14T14:55:21;19.30;99.90
25208;DHT22;13153;52.316;21.166;2023-06-14T14:57:47;19.20;99.90
25208;DHT22;13153;52.316;21.166;2023-06-14T15:00:13;19.20;99.90
25208;DHT22;13153;52.316;21.166;2023-06-14T15:02:39;19.20;99.90
25208;DHT22;13153;52.316;21.166;2023-06-14T15:05:06;19.30;99.90
25208;DHT22;13153;52.316;21.166;2023-06-14T15:07:32;19.30;99.90
25208;DHT22;13153;52.316;21.166;2023-06-14T15:10:01;19.50;99.90
25208;DHT22;13153;52.316;21.166;2023-06-14T15:12:27;19.60;99.90
25208;DHT22;13153;52.316;21.166;2023-06-14T15:14:53;19.60;99.90
25208;DHT22;13153;52.316;21.166;2023-06-14T15:17:20;19.60;99.90
25208;DHT22;13153;52.316;21.166;2023-06-14T15:19:46;19.50;99.90
25208;DHT22;13153;52.316;21.166;2023-06-14T15:22:14;19.50;99.90
25208;DHT22;13153;52.316;21.166;2023-06-14T15:24:43;19.30;99.90
25208;DHT22;13153;52.316;21.166;2023-06-14T15:27:10;19.20;99.90
25208;DHT22;13153;52.316;21.166;2023-06-14T15:29:43;19.00;99.90